createdAt,value
2023-02-16T00:00:42.215Z,99.90
2023-02-16T00:05:45.416Z,99.90
2023-02-16T00:11:08.031Z,99.90
2023-02-16T00:16:19.433Z,99.90
2023-02-16T00:21:22.388Z,99.90
2023-02-16T00:26:28.176Z,99.90
2023-02-16T00:31:34.418Z,99.90
2023-02-16T00:36:37.127Z,99.90
2023-02-16T00:41:51.985Z,99.90
2023-02-16T00:46:55.449Z,99.90
2023-02-16T00:51:58.456Z,99.90
2023-02-16T00:57:01.211Z,99.90
2023-02-16T01:02:04.195Z,99.90
2023-02-16T01:07:31.697Z,99.90
2023-02-16T01:12:34.370Z,99.90
2023-02-16T01:17:36.912Z,99.90
2023-02-16T01:22:39.465Z,99.90
2023-02-16T01:27:44.385Z,99.90
2023-02-16T01:32:52.540Z,99.90
2023-02-16T01:37:55.510Z,99.90
2023-02-16T01:43:28.557Z,99.90
2023-02-16T01:48:32.392Z,99.90
2023-02-16T01:53:55.269Z,99.90
2023-02-16T01:59:08.699Z,99.90
2023-02-16T02:04:44.272Z,99.90
2023-02-16T02:10:16.976Z,99.90
2023-02-16T02:15:24.751Z,99.90
2023-02-16T02:20:47.833Z,99.90
2023-02-16T02:26:27.419Z,99.90
2023-02-16T02:31:59.395Z,99.90
2023-02-16T02:37:20.402Z,99.90
2023-02-16T02:42:54.107Z,99.90
2023-02-16T02:47:57.638Z,99.90
2023-02-16T02:53:05.063Z,99.90
2023-02-16T02:58:26.512Z,99.90
2023-02-16T03:03:37.574Z,99.90
2023-02-16T03:08:44.238Z,99.90
2023-02-16T03:13:51.030Z,99.90
2023-02-16T03:19:13.444Z,99.90
2023-02-16T03:24:43.015Z,99.90
2023-02-16T03:29:47.305Z,99.90
2023-02-16T03:34:50.088Z,99.90
2023-02-16T03:40:10.985Z,99.90
2023-02-16T03:45:13.524Z,99.90
2023-02-16T03:50:16.620Z,99.90
2023-02-16T03:55:19.564Z,99.90
2023-02-16T04:00:22.216Z,99.90
2023-02-16T04:05:25.191Z,99.90
2023-02-16T04:10:28.182Z,99.90
2023-02-16T04:15:31.726Z,99.90
2023-02-16T04:20:35.482Z,99.90
2023-02-16T04:25:38.003Z,99.90
2023-02-16T04:30:40.630Z,99.90
2023-02-16T04:35:43.175Z,99.90
2023-02-16T04:40:45.811Z,99.90
2023-02-16T04:45:48.417Z,99.90
2023-02-16T04:50:51.108Z,99.90
2023-02-16T04:55:53.552Z,99.90
2023-02-16T05:00:56.035Z,99.90
2023-02-16T05:05:58.584Z,99.90
2023-02-16T05:11:39.362Z,99.90
2023-02-16T05:16:42.147Z,99.90
2023-02-16T05:21:44.618Z,99.90
2023-02-16T05:26:48.083Z,99.90
2023-02-16T05:31:50.821Z,99.90
2023-02-16T05:36:53.644Z,99.90
2023-02-16T05:41:56.318Z,99.90
2023-02-16T05:46:58.973Z,99.90
2023-02-16T05:52:01.675Z,99.90
2023-02-16T05:57:04.277Z,99.90
2023-02-16T06:02:08.020Z,99.90
2023-02-16T06:07:12.053Z,99.90
2023-02-16T06:12:16.187Z,99.90
2023-02-16T06:17:18.744Z,99.90
2023-02-16T06:22:21.354Z,99.90
2023-02-16T06:27:24.096Z,99.90
2023-02-16T06:32:26.766Z,99.90
2023-02-16T06:37:29.554Z,99.90
2023-02-16T06:42:32.290Z,99.90
2023-02-16T06:47:35.884Z,99.90
2023-02-16T06:52:38.446Z,99.90
2023-02-16T06:57:41.052Z,99.90
2023-02-16T07:02:44.431Z,99.90
2023-02-16T07:07:46.956Z,99.90
2023-02-16T07:12:49.548Z,99.90
2023-02-16T07:17:52.136Z,99.90
2023-02-16T07:22:54.942Z,99.90
2023-02-16T07:27:57.479Z,99.90
2023-02-16T07:32:59.990Z,99.90
2023-02-16T07:38:03.544Z,99.90
2023-02-16T07:43:07.915Z,99.90
2023-02-16T07:48:10.552Z,99.90
2023-02-16T07:53:13.151Z,99.90
2023-02-16T07:58:27.781Z,99.90
2023-02-16T08:03:30.370Z,99.90
2023-02-16T08:08:33.353Z,99.90
2023-02-16T08:13:35.890Z,99.90
2023-02-16T08:18:39.324Z,99.90
2023-02-16T08:23:50.027Z,99.90
2023-02-16T08:28:53.035Z,99.90
2023-02-16T08:33:57.164Z,99.90
2023-02-16T08:39:01.124Z,99.90
2023-02-16T08:44:05.808Z,99.90
2023-02-16T08:49:09.452Z,99.90
2023-02-16T08:54:16.803Z,99.90
2023-02-16T08:59:21.697Z,99.90
2023-02-16T09:04:25.669Z,99.90
2023-02-16T09:09:28.781Z,99.90
2023-02-16T09:14:31.299Z,95.80
2023-02-16T09:19:34.218Z,95.90
2023-02-16T09:24:36.810Z,99.10
2023-02-16T09:29:40.549Z,98.70
2023-02-16T09:34:44.971Z,98.10
2023-02-16T09:39:47.647Z,99.40
2023-02-16T09:45:11.592Z,99.10
2023-02-16T09:50:38.271Z,99.90
2023-02-16T09:56:04.787Z,99.90
2023-02-16T10:01:19.063Z,99.90
2023-02-16T10:06:45.618Z,99.90
2023-02-16T10:12:01.991Z,98.60
2023-02-16T10:17:08.372Z,99.90
2023-02-16T10:22:17.661Z,99.90
2023-02-16T10:27:23.057Z,98.50
2023-02-16T10:32:29.366Z,99.90
2023-02-16T10:37:43.455Z,99.90
2023-02-16T10:42:56.536Z,99.90
2023-02-16T10:48:00.529Z,99.90
2023-02-16T10:53:10.385Z,99.90
2023-02-16T10:58:22.706Z,99.90
2023-02-16T11:03:30.446Z,99.90
2023-02-16T11:08:49.017Z,99.90
2023-02-16T11:14:02.630Z,99.90
2023-02-16T11:19:09.291Z,99.90
2023-02-16T11:24:23.986Z,99.90
2023-02-16T11:29:26.787Z,99.90
2023-02-16T11:34:36.170Z,98.10
2023-02-16T11:39:41.453Z,99.30
2023-02-16T11:44:51.818Z,99.90
2023-02-16T11:50:29.347Z,99.90
2023-02-16T11:55:33.343Z,94.20
2023-02-16T12:00:35.993Z,99.90
2023-02-16T12:06:17.026Z,99.90
2023-02-16T12:11:41.053Z,99.90
2023-02-16T12:17:07.967Z,99.90
2023-02-16T12:22:24.390Z,99.90
2023-02-16T12:28:05.967Z,99.10
2023-02-16T12:33:27.714Z,96.60
2023-02-16T12:38:56.843Z,99.90
2023-02-16T12:44:06.513Z,99.90
2023-02-16T12:49:36.158Z,99.90
2023-02-16T12:55:02.236Z,97.20
2023-02-16T13:00:33.416Z,99.90
2023-02-16T13:05:38.073Z,99.90
2023-02-16T13:11:07.674Z,99.90
2023-02-16T13:16:45.763Z,99.90
2023-02-16T13:21:54.071Z,99.90
2023-02-16T13:27:11.685Z,99.90
2023-02-16T13:32:17.895Z,99.90
2023-02-16T13:37:46.425Z,97.60
2023-02-16T13:43:45.118Z,99.90
2023-02-16T13:48:53.680Z,99.20
2023-02-16T13:53:59.253Z,99.90
2023-02-16T13:59:17.351Z,99.90
2023-02-16T14:04:22.737Z,99.90
2023-02-16T14:09:51.389Z,99.90
2023-02-16T14:14:53.914Z,99.50
2023-02-16T14:20:22.471Z,99.90
2023-02-16T14:25:27.192Z,99.90
2023-02-16T14:30:35.607Z,99.90
2023-02-16T14:35:41.224Z,98.20
2023-02-16T14:40:48.696Z,99.90
2023-02-16T14:46:02.221Z,99.40
2023-02-16T14:51:39.695Z,99.90
2023-02-16T14:56:45.497Z,99.90
2023-02-16T15:01:48.192Z,99.90
2023-02-16T15:06:51.203Z,99.90
2023-02-16T15:12:18.589Z,97.10
2023-02-16T15:17:44.898Z,99.90
2023-02-16T15:23:12.359Z,99.90
2023-02-16T15:28:26.112Z,99.90
2023-02-16T15:33:38.658Z,99.70
2023-02-16T15:38:57.085Z,99.90
2023-02-16T15:44:00.388Z,99.90
2023-02-16T15:49:28.288Z,99.90
2023-02-16T15:54:35.596Z,91.70
2023-02-16T15:59:43.464Z,90.30
2023-02-16T16:04:56.537Z,92.30
2023-02-16T16:10:00.360Z,92.20
2023-02-16T16:15:04.729Z,93.80
2023-02-16T16:20:28.603Z,98.20
2023-02-16T16:25:38.887Z,99.00
2023-02-16T16:30:44.197Z,99.90
2023-02-16T16:35:48.839Z,99.90
2023-02-16T16:40:54.955Z,99.90
2023-02-16T16:46:18.883Z,99.90
2023-02-16T16:51:24.248Z,99.90
2023-02-16T16:56:29.003Z,99.70
2023-02-16T17:01:32.163Z,99.90
2023-02-16T17:06:34.763Z,99.90
2023-02-16T17:11:39.396Z,99.90
2023-02-16T17:16:45.425Z,99.90
2023-02-16T17:21:49.077Z,99.90
2023-02-16T17:26:51.545Z,99.90
2023-02-16T17:31:54.141Z,99.90
2023-02-16T17:37:08.577Z,99.90
2023-02-16T17:42:11.907Z,99.90
2023-02-16T17:47:16.424Z,99.90
2023-02-16T17:52:18.937Z,99.90
2023-02-16T17:57:21.499Z,99.90
2023-02-16T18:02:24.067Z,99.90
2023-02-16T18:07:27.009Z,99.90
2023-02-16T18:12:29.582Z,99.90
2023-02-16T18:17:32.128Z,99.90
2023-02-16T18:22:34.870Z,99.90
2023-02-16T18:27:37.524Z,99.90
2023-02-16T18:32:41.919Z,99.90
2023-02-16T18:37:45.420Z,99.90
2023-02-16T18:42:48.138Z,99.90
2023-02-16T18:47:50.633Z,99.90
2023-02-16T18:52:53.172Z,99.90
2023-02-16T18:57:55.735Z,99.90
2023-02-16T19:02:58.472Z,99.90
2023-02-16T19:08:01.191Z,99.90
2023-02-16T19:13:05.154Z,99.90
2023-02-16T19:18:07.604Z,99.90
2023-02-16T19:23:10.004Z,99.90
2023-02-16T19:28:12.452Z,99.90
2023-02-16T19:33:14.980Z,99.90
2023-02-16T19:38:17.794Z,99.90
2023-02-16T19:43:21.282Z,99.90
2023-02-16T19:48:23.729Z,99.90
2023-02-16T19:53:26.641Z,99.90
2023-02-16T19:58:29.194Z,99.90
2023-02-16T20:03:31.727Z,99.90
2023-02-16T20:08:34.278Z,99.90
2023-02-16T20:13:37.535Z,99.90
2023-02-16T20:18:40.798Z,99.90
2023-02-16T20:23:44.626Z,99.90
2023-02-16T20:28:48.590Z,99.90
2023-02-16T20:33:51.994Z,99.90
2023-02-16T20:38:54.908Z,99.90
2023-02-16T20:43:57.550Z,99.90
2023-02-16T20:49:00.281Z,99.90
2023-02-16T20:54:04.012Z,99.90
2023-02-16T20:59:06.553Z,99.90
2023-02-16T21:04:10.551Z,99.90
2023-02-16T21:09:14.076Z,99.90
2023-02-16T21:14:16.633Z,99.90
2023-02-16T21:19:23.314Z,99.90
2023-02-16T21:24:26.115Z,99.90
2023-02-16T21:29:28.625Z,99.90
2023-02-16T21:34:32.437Z,99.90
2023-02-16T21:39:53.549Z,99.90
2023-02-16T21:45:14.162Z,99.90
2023-02-16T21:50:17.186Z,99.90
2023-02-16T21:55:38.249Z,99.90
2023-02-16T22:00:42.562Z,99.90
2023-02-16T22:05:45.272Z,99.90
2023-02-16T22:10:47.799Z,99.90
2023-02-16T22:15:50.361Z,99.90
2023-02-16T22:20:53.074Z,99.90
2023-02-16T22:25:55.608Z,99.90
2023-02-16T22:30:58.313Z,99.90
2023-02-16T22:36:11.787Z,99.90
2023-02-16T22:41:14.283Z,99.90
2023-02-16T22:46:17.682Z,99.90
2023-02-16T22:51:21.706Z,99.90
2023-02-16T22:56:24.234Z,99.90
2023-02-16T23:01:29.517Z,99.90
2023-02-16T23:06:34.995Z,99.90
2023-02-16T23:11:37.566Z,99.90
2023-02-16T23:16:40.048Z,99.90
2023-02-16T23:21:43.151Z,99.90
2023-02-16T23:26:46.243Z,99.90
2023-02-16T23:31:49.161Z,99.90
2023-02-16T23:36:51.781Z,99.90
2023-02-16T23:41:54.374Z,99.90
2023-02-16T23:46:57.011Z,99.90
2023-02-16T23:51:59.573Z,99.90
2023-02-16T23:57:02.269Z,99.90
